Time;durP1;ratioP1;P1;durP2;ratioP2;P2;SDS_P1;SDS_P2;PMS_P1;PMS_P2;Temp;Humidity;BMP_temperature;BMP_pressure;BME280_temperature;BME280_humidity;BME280_pressure;Samples;Min_cycle;Max_cycle;Signal;HPM_P1;HPM_P2
2021/07/23 00:01:18;;;;;;;7.40;6.75;;;25.90;96.70;;;;;;4906907;29;20044;-71
2021/07/23 00:03:50;;;;;;;8.63;6.78;;;26.00;96.70;;;;;;4915275;29;20513;-70
2021/07/23 00:06:33;;;;;;;7.60;6.88;;;26.00;96.70;;;;;;4900720;29;20044;-71
2021/07/23 00:09:03;;;;;;;7.80;6.78;;;26.00;96.70;;;;;;4901197;29;20055;-71
2021/07/23 00:11:33;;;;;;;8.45;7.47;;;26.00;96.70;;;;;;4930704;28;20052;-71
2021/07/23 00:14:03;;;;;;;7.55;6.82;;;26.00;96.70;;;;;;4902944;29;20028;-71
2021/07/23 00:16:33;;;;;;;9.13;7.75;;;26.00;96.70;;;;;;4899477;29;20467;-71
2021/07/23 00:19:05;;;;;;;12.38;7.55;;;26.00;96.70;;;;;;4903713;29;20070;-71
2021/07/23 00:21:34;;;;;;;10.13;6.93;;;26.00;96.70;;;;;;4901452;29;20073;-70
2021/07/23 00:24:05;;;;;;;7.80;6.93;;;26.00;96.70;;;;;;4902698;29;20136;-70
2021/07/23 00:26:34;;;;;;;9.27;6.55;;;26.10;96.70;;;;;;4918735;29;20040;-71
2021/07/23 00:29:04;;;;;;;9.40;7.53;;;26.10;96.70;;;;;;4902832;29;20652;-71
2021/07/23 00:31:35;;;;;;;7.32;6.65;;;26.00;96.70;;;;;;4919857;29;20062;-71
2021/07/23 00:34:07;;;;;;;8.57;7.15;;;26.00;96.70;;;;;;4917481;29;20502;-71
2021/07/23 00:36:37;;;;;;;8.30;7.50;;;26.00;96.70;;;;;;4898565;29;20040;-70
2021/07/23 00:39:07;;;;;;;8.15;7.30;;;26.00;96.70;;;;;;4902112;29;20040;-71
2021/07/23 00:41:38;;;;;;;8.10;7.32;;;26.00;96.70;;;;;;4905181;29;20087;-71
2021/07/23 00:44:08;;;;;;;7.43;6.72;;;26.00;96.70;;;;;;4898044;29;20083;-70
2021/07/23 00:46:40;;;;;;;9.82;7.28;;;25.90;96.70;;;;;;4903908;29;20048;-72
2021/07/23 00:49:12;;;;;;;10.82;7.40;;;25.90;96.70;;;;;;4923136;28;20051;-71
2021/07/23 00:51:43;;;;;;;7.88;7.07;;;25.90;96.70;;;;;;4906595;29;20521;-71
2021/07/23 00:54:16;;;;;;;9.10;7.40;;;25.90;96.70;;;;;;4898939;29;20044;-73
2021/07/23 00:56:51;;;;;;;9.13;7.38;;;25.90;96.70;;;;;;4916827;29;20565;-71
2021/07/23 00:59:26;;;;;;;9.18;7.18;;;25.80;96.70;;;;;;4931394;28;20279;-72
2021/07/23 01:01:57;;;;;;;8.48;7.25;;;25.80;96.70;;;;;;4903578;29;20067;-72
2021/07/23 01:04:29;;;;;;;8.95;7.60;;;25.80;96.70;;;;;;4904600;29;20044;-72
2021/07/23 01:07:00;;;;;;;9.07;8.10;;;25.70;96.70;;;;;;4902505;29;20048;-72
2021/07/23 01:09:31;;;;;;;9.35;8.45;;;25.60;96.70;;;;;;4900633;29;20605;-71
2021/07/23 01:12:04;;;;;;;9.55;8.60;;;25.60;96.70;;;;;;4919197;29;20095;-72
2021/07/23 01:14:39;;;;;;;10.10;9.18;;;25.60;96.70;;;;;;4904845;29;20044;-71
2021/07/23 01:17:11;;;;;;;9.18;8.23;;;25.60;96.70;;;;;;4901049;29;20551;-72
2021/07/23 01:19:50;;;;;;;9.13;8.32;;;25.60;96.70;;;;;;4902488;29;20040;-72
2021/07/23 01:22:23;;;;;;;9.23;7.90;;;25.60;96.70;;;;;;4901628;29;20052;-72
2021/07/23 01:24:55;;;;;;;8.88;7.57;;;25.50;96.70;;;;;;4918645;28;20090;-71
2021/07/23 01:27:27;;;;;;;8.85;8.00;;;25.50;96.70;;;;;;4897255;29;20904;-72
2021/07/23 01:30:07;;;;;;;9.05;8.15;;;25.40;96.70;;;;;;4902826;29;20033;-72
2021/07/23 01:32:39;;;;;;;11.00;7.70;;;25.40;96.70;;;;;;4913631;29;20351;-72
2021/07/23 01:35:10;;;;;;;7.88;7.18;;;25.50;96.70;;;;;;4931028;28;20048;-71
2021/07/23 01:37:42;;;;;;;8.70;7.80;;;25.60;96.70;;;;;;4915640;28;20541;-71
2021/07/23 01:40:14;;;;;;;8.88;8.00;;;25.70;96.70;;;;;;4904327;29;20051;-71
2021/07/23 01:42:48;;;;;;;8.80;7.90;;;25.70;96.70;;;;;;4901863;29;20619;-72
2021/07/23 01:45:18;;;;;;;10.38;7.55;;;25.80;96.70;;;;;;4900842;29;20044;-72
2021/07/23 01:48:08;;;;;;;9.55;7.38;;;25.70;96.70;;;;;;4902615;29;20399;-72
2021/07/23 01:50:38;;;;;;;8.18;7.38;;;25.70;96.70;;;;;;4905231;29;20067;-71
2021/07/23 01:53:08;;;;;;;8.15;7.35;;;25.60;96.70;;;;;;4906089;29;20048;-71
2021/07/23 01:55:57;;;;;;;9.70;7.38;;;25.60;96.70;;;;;;4904295;29;20038;-72
2021/07/23 01:58:34;;;;;;;8.55;7.18;;;25.60;96.70;;;;;;4903370;29;20445;-72
2021/07/23 02:01:06;;;;;;;10.38;7.63;;;25.60;96.70;;;;;;4902378;29;20830;-71
2021/07/23 02:03:43;;;;;;;11.57;7.75;;;25.60;96.70;;;;;;4934565;28;20056;-71
2021/07/23 02:06:15;;;;;;;8.77;7.88;;;25.60;96.70;;;;;;4920195;29;20088;-72
2021/07/23 02:08:47;;;;;;;9.15;8.20;;;25.60;96.70;;;;;;4922805;28;20418;-71
2021/07/23 02:11:19;;;;;;;8.00;7.22;;;25.60;96.70;;;;;;4915734;28;20510;-71
2021/07/23 02:13:52;;;;;;;8.40;7.65;;;25.50;96.70;;;;;;4935500;28;20056;-72
2021/07/23 02:16:23;;;;;;;8.07;7.25;;;25.50;96.70;;;;;;4916416;29;20088;-71
2021/07/23 02:18:52;;;;;;;8.48;7.55;;;25.60;96.70;;;;;;4905418;29;20044;-71
2021/07/23 02:21:41;;;;;;;11.73;8.55;;;25.70;96.70;;;;;;4936566;28;20075;-71
2021/07/23 02:24:12;;;;;;;8.57;7.40;;;25.70;96.70;;;;;;4906886;29;20044;-72
2021/07/23 02:26:45;;;;;;;11.60;7.90;;;25.60;96.70;;;;;;4934353;28;20048;-72
2021/07/23 02:29:14;;;;;;;8.32;7.32;;;25.60;96.70;;;;;;4909755;29;20127;-72
2021/07/23 02:31:48;;;;;;;8.00;7.18;;;25.70;96.70;;;;;;4918096;29;20064;-71
2021/07/23 02:34:23;;;;;;;8.18;7.25;;;25.70;96.70;;;;;;4901765;29;20040;-72
2021/07/23 02:36:55;;;;;;;8.75;7.38;;;25.70;96.70;;;;;;4923543;29;20039;-71
2021/07/23 02:39:26;;;;;;;8.40;7.47;;;25.70;96.70;;;;;;4908466;29;20096;-71
2021/07/23 02:42:04;;;;;;;8.05;7.30;;;25.70;96.70;;;;;;4922660;28;20067;-72
2021/07/23 02:44:41;;;;;;;9.43;7.35;;;25.80;96.70;;;;;;4936324;28;20107;-72
2021/07/23 02:47:12;;;;;;;9.00;7.97;;;25.70;96.70;;;;;;4938002;28;20178;-72
2021/07/23 02:49:43;;;;;;;9.32;8.30;;;25.70;96.70;;;;;;4901904;29;20046;-72
2021/07/23 02:52:16;;;;;;;10.80;8.10;;;25.60;96.70;;;;;;4908630;29;20683;-72
2021/07/23 02:54:47;;;;;;;8.70;7.90;;;25.60;96.70;;;;;;4937092;28;20052;-72
2021/07/23 02:57:19;;;;;;;7.95;7.15;;;25.60;96.70;;;;;;4931110;28;20477;-72
2021/07/23 02:59:49;;;;;;;9.63;8.52;;;25.70;96.70;;;;;;4903685;29;20048;-72
2021/07/23 03:02:20;;;;;;;8.70;7.82;;;25.70;96.70;;;;;;4902055;29;20590;-71
2021/07/23 03:04:51;;;;;;;9.20;8.27;;;25.70;96.70;;;;;;4903001;29;20087;-71
2021/07/23 03:07:23;;;;;;;8.60;7.68;;;25.60;96.70;;;;;;4909470;29;20055;-71
2021/07/23 03:09:54;;;;;;;9.30;8.50;;;25.60;96.70;;;;;;4904793;29;20044;-71
2021/07/23 03:12:26;;;;;;;8.63;7.72;;;25.60;96.70;;;;;;4936696;28;20047;-71
2021/07/23 03:14:56;;;;;;;9.27;7.70;;;25.70;96.70;;;;;;4931834;28;20769;-72
2021/07/23 03:17:26;;;;;;;9.32;8.13;;;25.80;96.70;;;;;;4906061;29;20520;-71
2021/07/23 03:20:02;;;;;;;9.07;8.10;;;25.60;96.70;;;;;;4934002;28;20588;-71
2021/07/23 03:22:32;;;;;;;8.50;7.70;;;25.60;96.70;;;;;;4908308;29;20143;-71
2021/07/23 03:25:06;;;;;;;7.40;6.80;;;25.70;96.70;;;;;;4931810;28;20259;-71
2021/07/23 03:27:55;;;;;;;8.85;7.97;;;25.70;96.70;;;;;;4906617;29;20546;-71
2021/07/23 03:30:54;;;;;;;8.93;7.72;;;25.80;96.70;;;;;;4905630;29;20124;-72
2021/07/23 03:33:24;;;;;;;8.95;8.10;;;25.70;96.70;;;;;;4897252;29;20127;-71
2021/07/23 03:35:52;;;;;;;11.25;8.55;;;25.70;96.70;;;;;;4922646;29;20168;-72
2021/07/23 03:38:21;;;;;;;8.63;7.38;;;25.70;96.70;;;;;;4918675;29;20096;-71
2021/07/23 03:40:51;;;;;;;9.80;8.18;;;25.60;96.70;;;;;;4906391;29;20083;-72
2021/07/23 03:43:22;;;;;;;10.45;8.48;;;25.50;96.70;;;;;;4931352;28;20044;-70
2021/07/23 03:45:59;;;;;;;12.98;11.30;;;25.40;96.70;;;;;;4906653;28;20706;-69
2021/07/23 03:48:32;;;;;;;14.40;11.88;;;25.40;96.70;;;;;;4936759;28;20581;-70
2021/07/23 03:51:04;;;;;;;10.85;9.85;;;25.50;96.70;;;;;;4936764;28;20055;-70
2021/07/23 03:54:07;;;;;;;9.20;8.30;;;25.30;96.70;;;;;;4903410;29;20540;-69
2021/07/23 03:56:37;;;;;;;9.13;8.23;;;25.30;96.70;;;;;;4904594;29;20052;-71
2021/07/23 03:59:10;;;;;;;13.38;9.02;;;25.10;96.70;;;;;;4916294;29;20044;-71
2021/07/23 04:01:52;;;;;;;9.13;8.13;;;25.10;96.70;;;;;;4920050;29;20051;-71
2021/07/23 04:04:22;;;;;;;9.55;7.78;;;25.00;96.70;;;;;;4919537;28;20058;-70
2021/07/23 04:06:59;;;;;;;8.75;7.97;;;24.90;96.70;;;;;;4886026;29;20083;-71
2021/07/23 04:09:29;;;;;;;10.48;8.38;;;25.00;96.70;;;;;;4891614;29;20048;-70
2021/07/23 04:12:00;;;;;;;9.98;7.95;;;25.10;96.70;;;;;;4919345;29;20307;-70
2021/07/23 04:14:37;;;;;;;9.80;7.90;;;25.10;96.70;;;;;;4910498;29;20535;-71
2021/07/23 04:17:06;;;;;;;9.57;8.25;;;25.10;96.70;;;;;;4919343;28;20923;-70
2021/07/23 04:20:14;;;;;;;10.68;8.02;;;25.20;96.70;;;;;;4917639;29;20056;-71
2021/07/23 04:22:45;;;;;;;10.18;8.45;;;25.20;96.70;;;;;;4897965;29;20468;-71
2021/07/23 04:25:20;;;;;;;10.65;8.45;;;25.30;96.70;;;;;;4896022;29;20526;-70
2021/07/23 04:27:49;;;;;;;9.48;8.48;;;25.20;96.70;;;;;;4905450;29;20046;-70
2021/07/23 04:30:39;;;;;;;9.77;8.75;;;25.10;96.70;;;;;;4904317;29;20075;-70
2021/07/23 04:33:22;;;;;;;9.20;7.55;;;25.10;96.70;;;;;;4917476;29;20058;-71
2021/07/23 04:36:37;;;;;;;8.77;7.88;;;25.00;96.70;;;;;;4898040;29;20098;-70
2021/07/23 04:39:20;;;;;;;8.48;7.68;;;25.00;96.70;;;;;;4934848;28;20044;-71
2021/07/23 04:41:50;;;;;;;9.48;7.90;;;25.00;96.70;;;;;;4930201;28;20064;-70
2021/07/23 04:44:19;;;;;;;8.93;7.90;;;25.00;96.70;;;;;;4912376;29;20391;-70
2021/07/23 04:46:58;;;;;;;10.25;8.25;;;25.00;96.70;;;;;;4947427;28;20105;-70
2021/07/23 04:49:28;;;;;;;9.27;8.38;;;25.00;96.70;;;;;;4891951;29;20231;-70
2021/07/23 04:51:58;;;;;;;8.90;8.00;;;25.00;96.70;;;;;;4907964;29;20158;-72
2021/07/23 04:54:44;;;;;;;;;;;25.00;96.70;;;;;;4910526;29;20100;-71
2021/07/23 04:57:46;;;;;;;10.38;8.32;;;25.00;96.70;;;;;;4904208;29;19934;-71
2021/07/23 05:00:17;;;;;;;9.25;8.35;;;25.10;96.70;;;;;;4903305;29;20044;-71
2021/07/23 05:02:55;;;;;;;9.85;8.00;;;25.10;96.70;;;;;;4904047;29;20071;-70
2021/07/23 05:05:24;;;;;;;9.68;8.68;;;25.20;96.70;;;;;;4902851;29;20650;-71
2021/07/23 05:07:52;;;;;;;10.02;7.90;;;25.20;96.70;;;;;;4903338;29;20056;-71
2021/07/23 05:10:22;;;;;;;13.65;8.63;;;25.30;96.70;;;;;;4888388;29;20056;-70
2021/07/23 05:12:50;;;;;;;10.60;7.97;;;25.30;96.70;;;;;;4911089;29;20052;-70
2021/07/23 05:15:19;;;;;;;8.55;7.80;;;25.30;96.70;;;;;;4903675;29;20151;-70
2021/07/23 05:17:49;;;;;;;9.70;8.25;;;25.40;96.70;;;;;;4903175;29;20051;-70
2021/07/23 05:20:18;;;;;;;8.93;8.13;;;25.40;96.70;;;;;;4903874;29;20048;-70
2021/07/23 05:22:46;;;;;;;9.40;8.20;;;25.40;96.70;;;;;;4903237;29;20052;-71
2021/07/23 05:25:14;;;;;;;10.38;8.32;;;25.50;96.70;;;;;;4888933;29;20095;-70
2021/07/23 05:27:43;;;;;;;12.63;8.90;;;25.60;96.70;;;;;;4886771;29;20138;-70
2021/07/23 05:30:12;;;;;;;12.85;9.05;;;25.60;96.70;;;;;;4903586;29;20605;-70
2021/07/23 05:32:41;;;;;;;15.13;8.75;;;25.60;96.70;;;;;;4903227;29;20142;-70
2021/07/23 05:35:11;;;;;;;12.32;8.23;;;25.70;96.70;;;;;;4897823;29;20310;-70
2021/07/23 05:37:39;;;;;;;12.18;9.07;;;25.80;96.70;;;;;;4902173;29;20050;-71
2021/07/23 05:40:11;;;;;;;12.23;9.02;;;25.90;96.70;;;;;;4911499;29;20200;-71
2021/07/23 05:42:39;;;;;;;10.73;8.88;;;26.00;96.70;;;;;;4920893;28;20052;-70
2021/07/23 05:45:08;;;;;;;11.48;9.10;;;26.00;96.70;;;;;;4905407;29;20048;-71
2021/07/23 05:47:37;;;;;;;10.38;9.27;;;26.00;96.70;;;;;;4906693;29;20447;-71
2021/07/23 05:50:06;;;;;;;14.05;9.80;;;26.10;96.70;;;;;;4909736;29;20047;-72
2021/07/23 05:52:36;;;;;;;15.57;11.02;;;26.10;96.70;;;;;;4901037;29;20135;-72
2021/07/23 05:55:05;;;;;;;21.73;10.23;;;26.10;96.70;;;;;;4908982;29;20048;-72
2021/07/23 05:57:34;;;;;;;18.30;10.68;;;26.20;96.70;;;;;;4912387;29;20540;-72
2021/07/23 06:00:06;;;;;;;15.05;10.15;;;26.20;96.70;;;;;;4904844;29;20449;-72
2021/07/23 06:02:39;;;;;;;16.88;11.77;;;26.30;96.70;;;;;;4907190;29;20123;-72
2021/07/23 06:05:09;;;;;;;11.73;9.82;;;26.30;96.70;;;;;;4905980;29;20051;-72
2021/07/23 06:07:39;;;;;;;15.30;12.18;;;26.20;96.70;;;;;;4905377;29;20044;-73
2021/07/23 06:10:08;;;;;;;13.40;11.23;;;26.20;96.70;;;;;;4941674;28;20044;-70
2021/07/23 06:12:37;;;;;;;11.77;10.57;;;26.30;96.70;;;;;;4908775;29;20051;-70
2021/07/23 06:15:06;;;;;;;12.20;10.63;;;26.30;96.70;;;;;;4941742;28;20048;-70
2021/07/23 06:17:35;;;;;;;13.40;10.15;;;26.30;96.70;;;;;;4920449;29;20143;-73
2021/07/23 06:20:04;;;;;;;11.52;10.00;;;26.30;96.70;;;;;;4926219;28;20047;-71
2021/07/23 06:22:33;;;;;;;15.15;10.68;;;26.40;96.70;;;;;;4918663;29;20052;-71
2021/07/23 06:25:03;;;;;;;15.68;10.68;;;26.50;96.70;;;;;;4903998;29;20179;-71
2021/07/23 06:27:31;;;;;;;13.25;11.05;;;26.60;96.70;;;;;;4910455;29;20054;-70
2021/07/23 06:30:00;;;;;;;15.40;11.82;;;26.60;96.70;;;;;;4904537;29;20040;-71
2021/07/23 06:32:31;;;;;;;12.93;10.80;;;26.70;96.70;;;;;;4919777;29;20048;-70
2021/07/23 06:35:00;;;;;;;12.77;11.45;;;26.70;96.70;;;;;;4914206;29;20135;-70
2021/07/23 06:37:28;;;;;;;15.32;11.88;;;26.60;96.70;;;;;;4925243;28;20052;-70
2021/07/23 06:39:57;;;;;;;13.82;12.18;;;26.60;96.70;;;;;;4909571;29;20042;-70
2021/07/23 06:42:27;;;;;;;12.05;10.85;;;26.60;96.70;;;;;;4910437;29;20068;-70
2021/07/23 06:44:55;;;;;;;13.93;11.82;;;26.80;96.70;;;;;;4925402;29;20072;-71
2021/07/23 06:47:24;;;;;;;20.02;11.25;;;26.90;96.70;;;;;;4924925;29;20510;-70
2021/07/23 06:49:52;;;;;;;15.48;11.38;;;26.90;96.70;;;;;;4908733;28;20624;-70
2021/07/23 06:52:21;;;;;;;13.02;10.95;;;27.00;96.70;;;;;;4916153;29;20103;-71
2021/07/23 06:54:51;;;;;;;11.57;10.45;;;27.10;96.70;;;;;;4909942;29;20048;-70
2021/07/23 06:57:19;;;;;;;11.35;9.68;;;27.10;96.70;;;;;;4913195;29;20048;-70
2021/07/23 06:59:49;;;;;;;11.00;9.77;;;27.10;96.70;;;;;;4913880;29;20044;-70
2021/07/23 07:02:18;;;;;;;10.70;9.70;;;27.00;96.70;;;;;;4912145;29;20050;-71
2021/07/23 07:04:47;;;;;;;11.95;9.82;;;27.10;96.70;;;;;;4906957;29;20058;-69
2021/07/23 07:07:16;;;;;;;10.15;9.07;;;27.20;96.70;;;;;;4908654;29;20154;-70
2021/07/23 07:09:45;;;;;;;10.43;9.40;;;27.20;96.70;;;;;;4933494;28;20143;-71
2021/07/23 07:12:13;;;;;;;11.95;9.50;;;27.30;96.70;;;;;;4912005;29;20048;-70
2021/07/23 07:14:42;;;;;;;10.98;9.88;;;27.30;96.70;;;;;;4913457;29;20063;-70
2021/07/23 07:17:13;;;;;;;12.73;9.00;;;27.40;96.70;;;;;;4939439;28;20052;-70
2021/07/23 07:19:41;;;;;;;10.30;9.30;;;27.50;96.70;;;;;;4909366;29;20040;-70
2021/07/23 07:22:10;;;;;;;10.50;9.50;;;27.50;96.70;;;;;;4915360;29;20048;-70
2021/07/23 07:24:38;;;;;;;13.65;10.43;;;27.60;96.70;;;;;;4911226;29;20075;-71
2021/07/23 07:27:07;;;;;;;11.77;10.10;;;27.70;96.70;;;;;;4909396;29;20039;-70
2021/07/23 07:29:36;;;;;;;11.75;9.82;;;27.80;96.70;;;;;;4909293;29;20048;-71
2021/07/23 07:32:07;;;;;;;11.13;10.13;;;27.70;96.70;;;;;;4938064;28;20070;-70
2021/07/23 07:34:37;;;;;;;11.65;10.25;;;27.70;96.70;;;;;;4911424;29;20044;-71
2021/07/23 07:37:06;;;;;;;14.82;10.88;;;27.80;96.70;;;;;;4917393;29;20046;-70
2021/07/23 07:39:34;;;;;;;10.48;9.43;;;27.80;96.70;;;;;;4909427;29;20083;-71
2021/07/23 07:42:03;;;;;;;11.85;10.63;;;27.80;96.70;;;;;;4911383;29;20064;-72
2021/07/23 07:44:32;;;;;;;11.57;10.45;;;27.80;96.70;;;;;;4905128;29;20048;-71
2021/07/23 07:47:00;;;;;;;11.02;9.93;;;27.90;96.70;;;;;;4910108;29;20044;-70
2021/07/23 07:49:29;;;;;;;11.50;10.30;;;28.00;96.70;;;;;;4913945;29;20122;-70
2021/07/23 07:51:59;;;;;;;15.85;10.85;;;27.90;96.70;;;;;;4906511;29;20489;-70
2021/07/23 07:54:28;;;;;;;10.30;9.15;;;27.90;96.70;;;;;;4912050;29;20054;-71
2021/07/23 07:56:58;;;;;;;10.23;9.23;;;28.10;96.70;;;;;;4909706;29;20041;-70
2021/07/23 07:59:27;;;;;;;10.93;9.73;;;28.20;96.70;;;;;;4923014;29;20044;-71
2021/07/23 08:01:56;;;;;;;10.07;8.98;;;28.30;96.70;;;;;;4908362;29;20126;-71
2021/07/23 08:04:25;;;;;;;10.20;9.07;;;28.30;96.70;;;;;;4910338;29;20071;-70
2021/07/23 08:06:53;;;;;;;15.25;10.65;;;28.30;96.70;;;;;;4906605;29;20083;-71
2021/07/23 08:09:23;;;;;;;12.57;9.65;;;28.20;96.70;;;;;;4910925;29;20040;-70
2021/07/23 08:11:53;;;;;;;9.82;8.85;;;28.20;96.70;;;;;;4911592;29;20033;-70
2021/07/23 08:14:21;;;;;;;9.80;8.85;;;28.30;96.70;;;;;;4941451;28;20147;-72
2021/07/23 08:16:50;;;;;;;11.77;10.15;;;28.30;96.70;;;;;;4908516;29;20036;-70
2021/07/23 08:19:20;;;;;;;10.93;9.80;;;28.30;96.70;;;;;;4939771;28;20051;-71
2021/07/23 08:21:48;;;;;;;10.85;9.63;;;28.20;96.70;;;;;;4906125;29;20037;-70
2021/07/23 08:24:17;;;;;;;10.18;9.27;;;28.10;96.70;;;;;;4910600;29;20123;-71
2021/07/23 08:26:47;;;;;;;13.25;9.68;;;28.30;96.70;;;;;;4908408;29;20075;-70
2021/07/23 08:29:16;;;;;;;10.68;9.65;;;28.40;96.70;;;;;;4912879;29;20080;-71
2021/07/23 08:31:44;;;;;;;10.57;9.52;;;28.50;96.70;;;;;;4911344;29;20134;-71
2021/07/23 08:34:14;;;;;;;11.93;9.65;;;28.40;96.70;;;;;;4909305;29;20080;-70
2021/07/23 08:36:43;;;;;;;9.88;8.68;;;28.50;96.70;;;;;;4908584;29;20108;-70
2021/07/23 08:39:11;;;;;;;9.90;8.95;;;28.60;96.70;;;;;;4913296;29;20364;-70
2021/07/23 08:41:40;;;;;;;9.05;8.15;;;28.60;96.70;;;;;;4907838;29;20083;-71
2021/07/23 08:44:15;;;;;;;10.02;8.85;;;28.60;96.70;;;;;;4909294;29;20066;-71
2021/07/23 08:46:44;;;;;;;10.07;9.07;;;28.60;96.70;;;;;;4908584;29;20057;-71
2021/07/23 08:49:14;;;;;;;12.27;9.43;;;28.70;96.70;;;;;;4912093;29;20044;-71
2021/07/23 08:51:49;;;;;;;10.23;8.85;;;28.70;96.70;;;;;;4907871;29;20096;-70
2021/07/23 08:54:18;;;;;;;12.37;9.60;;;28.60;96.70;;;;;;4924491;28;20044;-70
2021/07/23 08:56:47;;;;;;;9.60;8.70;;;28.60;96.70;;;;;;4905668;29;20284;-70
2021/07/23 08:59:17;;;;;;;10.93;8.15;;;28.70;96.70;;;;;;4924248;28;20437;-70
2021/07/23 09:02:00;;;;;;;10.05;8.80;;;28.90;96.70;;;;;;4944153;28;20577;-70
2021/07/23 09:04:30;;;;;;;10.07;8.90;;;29.00;96.70;;;;;;4921853;29;20064;-70
2021/07/23 09:07:29;;;;;;;10.68;8.50;;;29.10;96.70;;;;;;4908097;29;20048;-70
2021/07/23 09:10:03;;;;;;;10.40;8.25;;;29.00;96.70;;;;;;4906741;29;20052;-70
2021/07/23 09:12:42;;;;;;;9.05;8.23;;;28.90;96.70;;;;;;4899563;29;20072;-71
2021/07/23 09:15:28;;;;;;;9.13;8.15;;;28.90;96.70;;;;;;4904859;29;20040;-70
2021/07/23 09:17:57;;;;;;;9.43;8.45;;;29.00;96.70;;;;;;4908198;29;20051;-71
2021/07/23 09:20:27;;;;;;;11.18;8.65;;;29.10;96.70;;;;;;4911321;29;20052;-70
2021/07/23 09:22:57;;;;;;;11.25;8.75;;;29.10;96.70;;;;;;4921717;29;20420;-71
2021/07/23 09:25:37;;;;;;;9.02;8.18;;;29.20;96.70;;;;;;4905853;29;20577;-71
2021/07/23 09:28:32;;;;;;;9.63;8.00;;;29.30;96.70;;;;;;4939157;28;20141;-71
2021/07/23 09:31:03;;;;;;;8.63;7.78;;;29.30;96.70;;;;;;4939586;28;20729;-70
2021/07/23 09:33:34;;;;;;;11.15;8.40;;;29.40;96.70;;;;;;4908853;29;20397;-70
2021/07/23 09:36:04;;;;;;;9.55;7.95;;;29.50;96.70;;;;;;4910833;29;20477;-70
2021/07/23 09:38:38;;;;;;;11.68;8.30;;;29.70;96.70;;;;;;4908534;29;20049;-71
2021/07/23 09:41:09;;;;;;;9.38;7.65;;;29.80;96.70;;;;;;4909553;29;20128;-72
2021/07/23 09:43:40;;;;;;;11.00;8.85;;;29.80;96.70;;;;;;4911169;29;20118;-70
2021/07/23 09:46:30;;;;;;;14.40;9.40;;;29.70;96.70;;;;;;4905492;29;20549;-71
2021/07/23 09:49:00;;;;;;;7.80;6.75;;;29.80;96.70;;;;;;4907830;29;20067;-74
2021/07/23 09:51:29;;;;;;;7.93;6.90;;;29.80;96.70;;;;;;4922898;29;20414;-71
2021/07/23 09:53:58;;;;;;;8.55;7.60;;;29.80;96.70;;;;;;4904237;29;20056;-73
2021/07/23 09:56:26;;;;;;;10.23;7.60;;;29.80;96.70;;;;;;4908354;29;20079;-73
2021/07/23 09:59:01;;;;;;;12.20;9.20;;;29.90;96.70;;;;;;4906930;29;20052;-73
2021/07/23 10:01:38;;;;;;;12.18;8.18;;;30.00;96.70;;;;;;4909677;29;20052;-73
2021/07/23 10:04:14;;;;;;;11.85;8.98;;;30.20;96.70;;;;;;4925228;28;20056;-75
2021/07/23 10:06:53;;;;;;;11.98;8.07;;;30.30;96.70;;;;;;4919818;29;20192;-73
2021/07/23 10:09:27;;;;;;;8.35;7.22;;;30.20;96.70;;;;;;4904272;29;20044;-72
2021/07/23 10:11:56;;;;;;;9.82;7.03;;;30.00;96.70;;;;;;4941660;28;20045;-73
2021/07/23 10:14:27;;;;;;;10.82;7.72;;;30.10;96.70;;;;;;4894518;29;20044;-72
2021/07/23 10:16:58;;;;;;;7.78;6.60;;;30.10;96.70;;;;;;4908533;29;20048;-72
2021/07/23 10:19:28;;;;;;;10.57;6.90;;;30.30;96.70;;;;;;4926289;28;20127;-71
2021/07/23 10:21:57;;;;;;;8.27;6.30;;;30.30;96.70;;;;;;4912643;29;20622;-71
2021/07/23 10:24:31;;;;;;;8.07;7.28;;;30.40;96.70;;;;;;4918211;29;20300;-71
2021/07/23 10:27:04;;;;;;;7.05;6.35;;;30.50;96.70;;;;;;4915783;29;20055;-71
2021/07/23 10:29:44;;;;;;;11.95;7.28;;;30.50;96.70;;;;;;4910539;29;20095;-70
2021/07/23 10:32:35;;;;;;;9.48;6.90;;;30.50;96.70;;;;;;4907876;29;20056;-70
2021/07/23 10:35:31;;;;;;;9.38;7.05;;;30.50;96.70;;;;;;4911996;29;20226;-71
2021/07/23 10:38:00;;;;;;;11.63;7.10;;;30.70;96.70;;;;;;4923107;29;20052;-71
2021/07/23 10:40:35;;;;;;;6.90;6.20;;;31.00;96.70;;;;;;4910607;29;20689;-71
2021/07/23 10:43:32;;;;;;;6.63;5.32;;;31.10;95.10;;;;;;4905462;29;20506;-71
2021/07/23 10:46:01;;;;;;;5.78;5.28;;;31.10;94.40;;;;;;4908462;29;20108;-72
2021/07/23 10:48:50;;;;;;;6.43;5.80;;;31.10;94.30;;;;;;4907202;29;20040;-71
2021/07/23 10:51:47;;;;;;;7.97;5.90;;;31.30;94.20;;;;;;4909691;29;20044;-71
2021/07/23 10:54:17;;;;;;;6.10;5.03;;;31.50;93.40;;;;;;4932258;28;20409;-72
2021/07/23 10:57:12;;;;;;;6.47;4.63;;;31.50;92.30;;;;;;4923080;29;20051;-71
2021/07/23 10:59:52;;;;;;;6.10;4.93;;;31.60;91.80;;;;;;4907996;29;20083;-71
2021/07/23 11:02:43;;;;;;;7.07;5.93;;;31.80;92.40;;;;;;4907716;29;20063;-72
2021/07/23 11:05:18;;;;;;;5.93;5.32;;;31.90;92.80;;;;;;4908631;29;20052;-71
2021/07/23 11:07:47;;;;;;;5.63;5.13;;;32.10;92.80;;;;;;4909817;29;20055;-71
2021/07/23 11:10:20;;;;;;;6.18;5.38;;;32.20;93.00;;;;;;4911587;29;20092;-72
2021/07/23 11:12:49;;;;;;;5.72;5.10;;;32.30;93.30;;;;;;4931660;29;20044;-71
2021/07/23 11:15:18;;;;;;;6.32;5.45;;;32.20;92.30;;;;;;4924614;29;20049;-71
2021/07/23 11:17:49;;;;;;;6.15;5.18;;;31.90;92.40;;;;;;4910050;29;20135;-72
2021/07/23 11:20:26;;;;;;;7.38;5.63;;;32.00;92.70;;;;;;4909125;29;20469;-71
2021/07/23 11:22:54;;;;;;;7.80;5.47;;;32.30;92.60;;;;;;4932255;29;20044;-71
2021/07/23 11:25:25;;;;;;;7.57;5.63;;;32.30;90.40;;;;;;4914152;29;20048;-71
2021/07/23 11:27:58;;;;;;;10.15;5.47;;;32.20;90.70;;;;;;4908957;29;20054;-71
2021/07/23 11:30:30;;;;;;;6.75;5.63;;;32.20;91.20;;;;;;4937743;28;20117;-71
2021/07/23 11:33:01;;;;;;;6.28;5.22;;;32.30;91.00;;;;;;4912002;29;20060;-72
2021/07/23 11:35:32;;;;;;;6.85;5.82;;;32.30;90.80;;;;;;4922421;29;20066;-71
2021/07/23 11:38:11;;;;;;;5.82;5.25;;;32.50;90.40;;;;;;4907565;29;20044;-71
2021/07/23 11:40:39;;;;;;;6.22;5.63;;;32.70;90.60;;;;;;4920820;29;20044;-71
2021/07/23 11:43:19;;;;;;;6.45;5.18;;;32.90;89.70;;;;;;4906105;29;20051;-72
2021/07/23 11:45:49;;;;;;;5.90;5.40;;;32.90;89.10;;;;;;4949222;28;20048;-71
2021/07/23 11:48:18;;;;;;;6.65;5.43;;;33.00;88.50;;;;;;4901969;29;20048;-71
2021/07/23 11:50:53;;;;;;;7.32;5.53;;;32.90;89.30;;;;;;4924897;29;20087;-71
2021/07/23 11:53:22;;;;;;;7.93;6.50;;;33.00;89.60;;;;;;4912171;29;20126;-72
2021/07/23 11:55:51;;;;;;;7.78;6.18;;;33.10;89.50;;;;;;4939119;28;20048;-71
2021/07/23 11:58:22;;;;;;;8.82;6.57;;;33.00;88.80;;;;;;4920082;29;20084;-71
2021/07/23 12:00:50;;;;;;;7.55;6.07;;;32.90;88.90;;;;;;4915571;29;20050;-71
2021/07/23 12:03:20;;;;;;;7.07;6.38;;;32.90;89.80;;;;;;4942709;28;20533;-72
2021/07/23 12:05:51;;;;;;;7.22;6.38;;;32.90;88.80;;;;;;4912132;29;21349;-71
2021/07/23 12:08:22;;;;;;;7.35;5.88;;;32.90;89.50;;;;;;4908619;29;20145;-71
2021/07/23 12:10:56;;;;;;;7.03;6.15;;;33.10;89.00;;;;;;4909452;29;20080;-71
2021/07/23 12:13:28;;;;;;;7.63;6.35;;;33.10;88.70;;;;;;4934895;28;20048;-71
2021/07/23 12:15:58;;;;;;;9.23;6.63;;;33.10;88.20;;;;;;4907345;29;20135;-71
2021/07/23 12:18:27;;;;;;;9.00;7.55;;;33.20;88.30;;;;;;4909777;29;20052;-71
2021/07/23 12:21:09;;;;;;;8.63;6.22;;;33.30;88.40;;;;;;4909801;29;20522;-71
2021/07/23 12:23:37;;;;;;;7.35;6.65;;;33.30;88.50;;;;;;4907803;29;20075;-71
2021/07/23 12:26:05;;;;;;;7.18;6.43;;;33.30;88.00;;;;;;4906857;29;20095;-71
2021/07/23 12:28:52;;;;;;;8.00;6.88;;;33.40;88.10;;;;;;4910266;29;20063;-72
2021/07/23 12:31:20;;;;;;;7.88;7.05;;;33.10;88.50;;;;;;4908992;29;20135;-72
2021/07/23 12:34:05;;;;;;;7.47;6.70;;;33.00;89.30;;;;;;4929370;28;20462;-71
2021/07/23 12:36:42;;;;;;;12.57;6.85;;;33.00;89.70;;;;;;4904174;29;20044;-71
2021/07/23 12:39:11;;;;;;;9.27;7.38;;;33.20;89.50;;;;;;4923771;29;20075;-71
2021/07/23 12:41:40;;;;;;;11.30;7.38;;;33.40;90.80;;;;;;4924481;28;20059;-71
2021/07/23 12:44:10;;;;;;;9.32;6.70;;;33.20;91.40;;;;;;4907358;29;20099;-71
2021/07/23 12:46:39;;;;;;;7.43;6.68;;;33.20;91.80;;;;;;4905853;29;20126;-72
2021/07/23 12:49:12;;;;;;;7.45;6.65;;;33.10;91.40;;;;;;4914215;29;20039;-72
2021/07/23 12:51:42;;;;;;;9.65;6.20;;;33.20;91.20;;;;;;4911733;29;20061;-71
2021/07/23 12:54:11;;;;;;;8.90;5.38;;;33.30;91.30;;;;;;4910872;29;20040;-71
2021/07/23 12:56:40;;;;;;;7.90;5.65;;;33.10;90.80;;;;;;4936501;28;20474;-70
2021/07/23 12:59:24;;;;;;;7.00;5.70;;;33.00;91.20;;;;;;4913127;29;20136;-71
2021/07/23 13:01:53;;;;;;;7.15;5.47;;;33.10;90.60;;;;;;4925769;29;20048;-72
2021/07/23 13:04:22;;;;;;;6.72;4.78;;;33.00;91.00;;;;;;4907279;29;20052;-71
2021/07/23 13:06:51;;;;;;;6.30;5.30;;;33.00;90.10;;;;;;4900266;29;20039;-71
2021/07/23 13:09:20;;;;;;;6.60;5.13;;;32.90;90.80;;;;;;4907606;29;20438;-71